createdAt,value
2022-10-26T00:00:26.024Z,96.69
2022-10-26T00:02:55.047Z,96.57
2022-10-26T00:05:24.633Z,96.24
2022-10-26T00:07:51.426Z,95.71
2022-10-26T00:10:21.637Z,96.47
2022-10-26T00:12:50.923Z,96.48
2022-10-26T00:15:20.810Z,96.66
2022-10-26T00:17:48.429Z,97.90
2022-10-26T00:20:15.396Z,97.21
2022-10-26T00:22:42.087Z,96.91
2022-10-26T00:25:09.046Z,96.53
2022-10-26T00:27:35.904Z,97.33
2022-10-26T00:30:06.525Z,96.74
2022-10-26T00:32:34.323Z,97.44
2022-10-26T00:35:10.509Z,97.69
2022-10-26T00:37:48.159Z,97.92
2022-10-26T00:40:15.075Z,98.73
2022-10-26T00:42:42.252Z,99.39
2022-10-26T00:45:29.938Z,98.14
2022-10-26T00:48:03.233Z,98.45
2022-10-26T00:50:42.706Z,97.66
2022-10-26T00:53:11.160Z,97.11
2022-10-26T00:55:41.637Z,97.24
2022-10-26T00:58:10.273Z,97.13
2022-10-26T01:00:36.791Z,96.01
2022-10-26T01:03:08.120Z,94.49
2022-10-26T01:05:37.662Z,94.39
2022-10-26T01:08:04.691Z,94.60
2022-10-26T01:10:31.759Z,95.23
2022-10-26T01:12:59.344Z,94.67
2022-10-26T01:15:36.915Z,95.48
2022-10-26T01:18:41.824Z,94.70
2022-10-26T01:21:40.507Z,95.21
2022-10-26T01:24:09.985Z,94.60
2022-10-26T01:27:04.006Z,94.92
2022-10-26T01:29:53.624Z,95.46
2022-10-26T01:32:31.429Z,95.96
2022-10-26T01:35:13.195Z,96.10
2022-10-26T01:37:53.193Z,95.90
2022-10-26T01:40:25.540Z,95.55
2022-10-26T01:42:55.061Z,93.70
2022-10-26T01:45:21.916Z,93.38
2022-10-26T01:47:50.004Z,94.03
2022-10-26T01:50:19.633Z,92.46
2022-10-26T01:52:50.542Z,93.64
2022-10-26T01:55:38.866Z,95.29
2022-10-26T01:58:17.914Z,95.70
2022-10-26T02:01:14.623Z,95.69
2022-10-26T02:04:06.678Z,95.35
2022-10-26T02:07:11.887Z,95.83
2022-10-26T02:10:08.981Z,95.19
2022-10-26T02:12:51.748Z,96.82
2022-10-26T02:15:24.730Z,95.68
2022-10-26T02:18:04.060Z,97.23
2022-10-26T02:20:39.511Z,97.34
2022-10-26T02:23:07.993Z,95.39
2022-10-26T02:25:40.241Z,95.04
2022-10-26T02:28:13.056Z,96.18
2022-10-26T02:30:41.013Z,98.08
2022-10-26T02:33:11.809Z,96.97
2022-10-26T02:35:41.595Z,95.24
2022-10-26T02:38:12.757Z,96.41
2022-10-26T02:40:40.121Z,94.41
2022-10-26T02:43:13.505Z,94.73
2022-10-26T02:45:48.314Z,95.24
2022-10-26T02:48:15.443Z,94.93
2022-10-26T02:51:03.655Z,94.52
2022-10-26T02:53:38.970Z,93.59
2022-10-26T02:56:16.426Z,92.49
2022-10-26T02:58:49.436Z,93.50
2022-10-26T03:01:16.433Z,92.94
2022-10-26T03:03:43.043Z,92.42
2022-10-26T03:06:09.644Z,94.21
2022-10-26T03:08:36.312Z,94.76
2022-10-26T03:11:02.862Z,94.68
2022-10-26T03:13:29.380Z,93.83
2022-10-26T03:15:57.613Z,94.13
2022-10-26T03:18:24.175Z,94.71
2022-10-26T03:20:50.708Z,94.47
2022-10-26T03:23:17.304Z,94.39
2022-10-26T03:25:43.857Z,94.04
2022-10-26T03:28:10.528Z,93.29
2022-10-26T03:30:37.078Z,94.44
2022-10-26T03:33:03.677Z,94.73
2022-10-26T03:35:30.332Z,94.04
2022-10-26T03:37:56.944Z,94.17
2022-10-26T03:40:23.465Z,96.18
2022-10-26T03:42:50.304Z,95.41
2022-10-26T03:45:17.118Z,94.32
2022-10-26T03:47:45.460Z,93.44
2022-10-26T03:50:13.892Z,93.42
2022-10-26T03:52:41.027Z,93.42
2022-10-26T03:55:08.953Z,93.16
2022-10-26T03:57:40.551Z,92.94
2022-10-26T04:00:07.649Z,92.58
2022-10-26T04:02:38.285Z,92.52
2022-10-26T04:05:05.276Z,92.69
2022-10-26T04:07:31.803Z,92.59
2022-10-26T04:09:58.405Z,92.32
2022-10-26T04:12:24.929Z,92.02
2022-10-26T04:14:51.663Z,91.91
2022-10-26T04:17:18.216Z,92.16
2022-10-26T04:19:44.755Z,91.77
2022-10-26T04:22:13.137Z,91.27
2022-10-26T04:24:39.703Z,91.21
2022-10-26T04:27:06.237Z,91.29
2022-10-26T04:29:32.925Z,91.42
2022-10-26T04:31:59.497Z,92.18
2022-10-26T04:34:26.011Z,91.46
2022-10-26T04:36:52.548Z,92.07
2022-10-26T04:39:19.147Z,92.52
2022-10-26T04:41:45.657Z,92.93
2022-10-26T04:44:12.251Z,93.61
2022-10-26T04:46:38.841Z,93.75
2022-10-26T04:49:05.433Z,93.63
2022-10-26T04:51:31.999Z,93.94
2022-10-26T04:53:58.604Z,93.95
2022-10-26T04:56:25.244Z,94.40
2022-10-26T04:58:54.557Z,94.81
2022-10-26T05:01:21.997Z,94.36
2022-10-26T05:03:53.137Z,95.36
2022-10-26T05:06:20.758Z,95.58
2022-10-26T05:08:47.516Z,95.47
2022-10-26T05:11:14.356Z,95.41
2022-10-26T05:13:40.966Z,95.48
2022-10-26T05:16:07.791Z,95.04
2022-10-26T05:18:34.343Z,95.39
2022-10-26T05:21:00.977Z,95.44
2022-10-26T05:23:27.608Z,94.87
2022-10-26T05:25:55.998Z,94.24
2022-10-26T05:28:22.565Z,94.29
2022-10-26T05:30:49.080Z,93.91
2022-10-26T05:33:15.805Z,93.87
2022-10-26T05:35:42.672Z,93.91
2022-10-26T05:38:09.541Z,94.79
2022-10-26T05:40:36.373Z,95.02
2022-10-26T05:43:03.002Z,95.05
2022-10-26T05:45:30.114Z,94.80
2022-10-26T05:47:58.737Z,93.74
2022-10-26T05:50:29.032Z,95.03
2022-10-26T05:52:55.852Z,94.92
2022-10-26T05:55:23.062Z,96.67
2022-10-26T05:57:50.404Z,95.69
2022-10-26T06:00:20.303Z,94.63
2022-10-26T06:03:01.933Z,94.37
2022-10-26T06:05:33.183Z,94.32
2022-10-26T06:07:59.974Z,94.47
2022-10-26T06:10:27.112Z,95.94
2022-10-26T06:12:53.918Z,95.51
2022-10-26T06:15:21.861Z,94.71
2022-10-26T06:17:54.182Z,95.48
2022-10-26T06:20:26.350Z,95.76
2022-10-26T06:23:20.817Z,95.71
2022-10-26T06:26:24.786Z,94.13
2022-10-26T06:29:32.038Z,94.30
2022-10-26T06:31:58.644Z,96.33
2022-10-26T06:34:34.546Z,95.93
2022-10-26T06:37:01.885Z,94.76
2022-10-26T06:39:34.647Z,94.13
2022-10-26T06:42:01.729Z,95.98
2022-10-26T06:44:29.215Z,95.04
2022-10-26T06:47:24.128Z,94.04
2022-10-26T06:50:03.711Z,94.96
2022-10-26T06:52:41.447Z,95.60
2022-10-26T06:55:14.310Z,95.29
2022-10-26T06:57:42.345Z,95.72
2022-10-26T07:00:19.797Z,97.01
2022-10-26T07:02:47.128Z,95.81
2022-10-26T07:05:14.261Z,96.31
2022-10-26T07:07:46.118Z,96.89
2022-10-26T07:10:15.027Z,96.51
2022-10-26T07:12:41.555Z,97.27
2022-10-26T07:15:10.960Z,98.21
2022-10-26T07:17:48.679Z,97.56
2022-10-26T07:20:17.313Z,97.52
2022-10-26T07:22:43.882Z,98.31
2022-10-26T07:25:12.181Z,99.08
2022-10-26T07:27:38.784Z,97.86
2022-10-26T07:30:05.902Z,98.40
2022-10-26T07:32:33.126Z,98.44
2022-10-26T07:34:59.700Z,98.32
2022-10-26T07:37:26.214Z,99.13
2022-10-26T07:39:52.769Z,100.00
2022-10-26T07:42:19.320Z,100.00
2022-10-26T07:44:45.901Z,100.00
2022-10-26T07:47:12.534Z,100.00
2022-10-26T07:49:39.598Z,100.00
2022-10-26T07:52:06.194Z,100.00
2022-10-26T07:54:32.882Z,100.00
2022-10-26T07:56:59.708Z,100.00
2022-10-26T07:59:26.285Z,100.00
2022-10-26T08:01:53.390Z,100.00
2022-10-26T08:04:19.989Z,100.00
2022-10-26T08:06:47.279Z,100.00
2022-10-26T08:09:13.852Z,99.26
2022-10-26T08:11:40.379Z,98.74
2022-10-26T08:14:06.996Z,97.51
2022-10-26T08:16:35.047Z,97.65
2022-10-26T08:19:01.657Z,97.83
2022-10-26T08:21:39.051Z,96.95
2022-10-26T08:24:06.656Z,97.02
2022-10-26T08:26:33.315Z,98.47
2022-10-26T08:28:59.928Z,96.76
2022-10-26T08:31:26.445Z,96.07
2022-10-26T08:33:53.088Z,96.98
2022-10-26T08:36:28.948Z,96.26
2022-10-26T08:38:55.706Z,96.51
2022-10-26T08:42:18.060Z,95.61
2022-10-26T08:44:47.664Z,96.77
2022-10-26T08:49:53.554Z,95.62
2022-10-26T08:52:26.522Z,96.70
2022-10-26T08:55:00.339Z,96.57
2022-10-26T08:57:37.083Z,94.36
2022-10-26T09:00:10.846Z,91.99
2022-10-26T09:02:37.565Z,92.04
2022-10-26T09:05:05.335Z,94.45
2022-10-26T09:07:36.862Z,94.97
2022-10-26T09:10:36.997Z,92.50
2022-10-26T09:13:15.226Z,91.78
2022-10-26T09:16:11.839Z,91.91
2022-10-26T09:19:20.165Z,90.81
2022-10-26T09:22:11.380Z,90.86
2022-10-26T09:24:52.668Z,91.75
2022-10-26T09:27:29.488Z,90.94
2022-10-26T09:29:59.998Z,91.67
2022-10-26T09:32:35.141Z,91.53
2022-10-26T09:35:14.466Z,90.80
2022-10-26T09:37:47.192Z,91.23
2022-10-26T09:40:26.031Z,90.67
2022-10-26T09:42:59.797Z,88.59
2022-10-26T09:45:55.814Z,87.47
2022-10-26T09:48:35.039Z,88.03
2022-10-26T09:51:04.604Z,88.57
2022-10-26T09:53:32.207Z,89.14
2022-10-26T09:56:07.306Z,88.52
2022-10-26T09:58:46.780Z,87.40
2022-10-26T10:01:35.587Z,86.48
2022-10-26T10:04:14.006Z,84.69
2022-10-26T10:06:41.185Z,86.07
2022-10-26T10:09:20.936Z,85.23
2022-10-26T10:11:56.580Z,84.31
2022-10-26T10:14:27.023Z,83.99
2022-10-26T10:16:57.787Z,83.74
2022-10-26T10:19:27.682Z,83.52
2022-10-26T10:21:57.301Z,82.63
2022-10-26T10:24:32.296Z,84.18
2022-10-26T10:27:01.888Z,85.23
2022-10-26T10:29:41.353Z,84.26
2022-10-26T10:32:15.738Z,84.67
2022-10-26T10:34:43.266Z,85.52
2022-10-26T10:37:28.620Z,84.45
2022-10-26T10:40:00.598Z,84.04
2022-10-26T10:42:33.613Z,84.41
2022-10-26T10:45:02.587Z,84.17
2022-10-26T10:47:32.813Z,85.30
2022-10-26T10:50:08.141Z,86.96
2022-10-26T10:52:36.042Z,86.60
2022-10-26T10:55:18.525Z,86.06
2022-10-26T10:58:40.537Z,85.65
2022-10-26T11:01:14.074Z,86.27
2022-10-26T11:04:07.201Z,84.36
2022-10-26T11:06:39.868Z,84.16
2022-10-26T11:09:18.496Z,82.85
2022-10-26T11:11:48.800Z,82.72
2022-10-26T11:14:15.401Z,82.78
2022-10-26T11:17:02.784Z,81.83
2022-10-26T11:19:31.419Z,81.36
2022-10-26T11:21:58.056Z,81.50
2022-10-26T11:24:42.840Z,81.39
2022-10-26T11:27:14.848Z,81.62
2022-10-26T11:30:05.865Z,81.77
2022-10-26T11:32:44.713Z,82.84
2022-10-26T11:35:14.930Z,83.95
2022-10-26T11:37:48.320Z,85.17
2022-10-26T11:40:34.032Z,84.90
2022-10-26T11:43:22.778Z,83.57
2022-10-26T11:46:02.706Z,84.13
2022-10-26T11:48:35.391Z,83.89
2022-10-26T11:51:02.828Z,82.21
2022-10-26T11:53:39.543Z,84.86
2022-10-26T11:56:18.239Z,85.07
2022-10-26T11:58:45.943Z,85.19
2022-10-26T12:01:14.993Z,84.58
2022-10-26T12:03:47.007Z,84.41
2022-10-26T12:06:22.724Z,84.54
2022-10-26T12:09:05.751Z,84.50
2022-10-26T12:11:46.822Z,83.67
2022-10-26T12:14:39.083Z,83.33
2022-10-26T12:17:18.677Z,84.63
2022-10-26T12:19:58.926Z,85.91
2022-10-26T12:22:36.952Z,84.18
2022-10-26T12:25:15.812Z,83.36
2022-10-26T12:27:42.477Z,83.01
2022-10-26T12:30:11.786Z,82.89
2022-10-26T12:32:40.324Z,83.74
2022-10-26T12:35:28.959Z,83.75
2022-10-26T12:37:55.944Z,82.81
2022-10-26T12:40:34.618Z,84.69
2022-10-26T12:43:13.463Z,85.73
2022-10-26T12:45:44.973Z,85.25
2022-10-26T12:48:48.093Z,84.47
2022-10-26T12:51:26.664Z,85.54
2022-10-26T12:54:19.357Z,85.64
2022-10-26T12:56:59.911Z,85.13
2022-10-26T12:59:49.128Z,85.91
2022-10-26T13:02:43.258Z,85.51
2022-10-26T13:05:24.848Z,84.93
2022-10-26T13:07:51.806Z,83.64
2022-10-26T13:10:22.994Z,82.36
2022-10-26T13:12:58.211Z,83.04
2022-10-26T13:15:27.020Z,82.41
2022-10-26T13:18:17.989Z,83.87
2022-10-26T13:21:14.835Z,83.75
2022-10-26T13:23:55.754Z,83.20
2022-10-26T13:26:27.288Z,82.17
2022-10-26T13:29:03.908Z,81.69
2022-10-26T13:31:33.462Z,81.59
2022-10-26T13:34:20.699Z,83.37
2022-10-26T13:36:57.248Z,82.10
2022-10-26T13:39:55.768Z,82.14
2022-10-26T13:42:27.315Z,82.33
2022-10-26T13:45:06.655Z,81.75
2022-10-26T13:47:44.500Z,82.73
2022-10-26T13:50:26.555Z,81.18
2022-10-26T13:53:00.168Z,79.32
2022-10-26T13:55:31.166Z,79.42
2022-10-26T13:58:18.771Z,79.06
2022-10-26T14:01:12.015Z,78.91
2022-10-26T14:03:39.753Z,78.59
2022-10-26T14:06:08.094Z,78.11
2022-10-26T14:08:34.810Z,77.91
2022-10-26T14:11:01.429Z,77.97
2022-10-26T14:13:29.283Z,77.50
2022-10-26T14:15:58.743Z,77.90
2022-10-26T14:18:28.893Z,78.09
2022-10-26T14:21:00.655Z,78.97
2022-10-26T14:23:28.242Z,79.60
2022-10-26T14:25:58.920Z,79.50
2022-10-26T14:28:28.945Z,80.67
2022-10-26T14:31:12.159Z,80.56
2022-10-26T14:33:39.829Z,80.43
2022-10-26T14:36:07.485Z,79.40
2022-10-26T14:38:42.779Z,79.61
2022-10-26T14:41:09.827Z,79.02
2022-10-26T14:43:36.483Z,78.89
2022-10-26T14:46:03.485Z,78.59
2022-10-26T14:48:35.264Z,78.32
2022-10-26T14:51:17.338Z,77.94
2022-10-26T14:53:52.685Z,77.73
2022-10-26T14:56:25.639Z,77.56
2022-10-26T14:58:53.498Z,77.50
2022-10-26T15:01:23.418Z,77.62
2022-10-26T15:04:01.405Z,78.00
2022-10-26T15:06:28.113Z,78.11
2022-10-26T15:09:04.206Z,78.48
2022-10-26T15:11:32.815Z,78.97
2022-10-26T15:14:00.363Z,78.93
2022-10-26T15:16:30.188Z,79.05
2022-10-26T15:19:23.690Z,79.43
2022-10-26T15:21:52.468Z,79.34
2022-10-26T15:24:33.134Z,79.75
2022-10-26T15:27:04.930Z,79.92
2022-10-26T15:29:45.683Z,79.70
2022-10-26T15:32:27.787Z,79.69
2022-10-26T15:35:22.298Z,80.06
2022-10-26T15:37:51.526Z,80.17
2022-10-26T15:40:19.252Z,79.78
2022-10-26T15:42:50.268Z,80.42
2022-10-26T15:45:26.201Z,80.38
2022-10-26T15:47:55.651Z,80.55
2022-10-26T15:50:27.101Z,80.99
2022-10-26T15:53:01.653Z,80.89
2022-10-26T15:55:30.266Z,81.27
2022-10-26T15:57:56.874Z,81.16
2022-10-26T16:00:23.514Z,81.17
2022-10-26T16:02:50.389Z,81.61
2022-10-26T16:05:17.134Z,81.62
2022-10-26T16:07:46.809Z,81.63
2022-10-26T16:10:24.911Z,81.46
2022-10-26T16:12:51.819Z,81.96
2022-10-26T16:15:21.065Z,81.70
2022-10-26T16:17:48.651Z,81.99
2022-10-26T16:20:18.614Z,81.82
2022-10-26T16:22:48.207Z,81.89
2022-10-26T16:25:16.873Z,82.02
2022-10-26T16:27:44.016Z,82.13
2022-10-26T16:30:12.942Z,82.12
2022-10-26T16:32:40.147Z,82.63
2022-10-26T16:35:07.042Z,82.42
2022-10-26T16:37:33.649Z,82.86
2022-10-26T16:40:00.277Z,82.96
2022-10-26T16:42:28.367Z,82.83
2022-10-26T16:44:57.596Z,83.15
2022-10-26T16:47:27.351Z,83.00
2022-10-26T16:49:53.967Z,82.79
2022-10-26T16:52:20.615Z,82.93
2022-10-26T16:54:47.162Z,83.36
2022-10-26T16:57:13.758Z,83.28
2022-10-26T16:59:40.390Z,83.35
2022-10-26T17:02:07.055Z,83.17
2022-10-26T17:04:33.678Z,83.28
2022-10-26T17:07:00.281Z,83.51
2022-10-26T17:09:27.971Z,83.33
2022-10-26T17:11:59.491Z,83.62
2022-10-26T17:14:28.301Z,83.93
2022-10-26T17:16:54.883Z,83.69
2022-10-26T17:19:21.435Z,83.79
2022-10-26T17:21:48.050Z,84.13
2022-10-26T17:24:14.837Z,83.86
2022-10-26T17:26:41.780Z,83.73
2022-10-26T17:29:12.341Z,84.05
2022-10-26T17:31:39.516Z,84.12
2022-10-26T17:34:06.056Z,84.13
2022-10-26T17:36:32.788Z,84.14
2022-10-26T17:39:00.771Z,84.13
2022-10-26T17:41:28.038Z,84.38
2022-10-26T17:43:54.649Z,84.47
2022-10-26T17:46:24.341Z,84.59
2022-10-26T17:48:57.885Z,84.68
2022-10-26T17:51:25.811Z,84.61
2022-10-26T17:53:53.081Z,84.58
2022-10-26T17:56:25.384Z,84.51
2022-10-26T17:58:56.293Z,84.68
2022-10-26T18:01:23.900Z,85.11
2022-10-26T18:03:51.451Z,85.20
2022-10-26T18:06:18.541Z,85.06
2022-10-26T18:08:45.743Z,85.17
2022-10-26T18:11:15.147Z,85.06
2022-10-26T18:13:42.040Z,84.94
2022-10-26T18:16:18.419Z,85.09
2022-10-26T18:18:49.860Z,85.29
2022-10-26T18:21:19.614Z,85.29
2022-10-26T18:23:46.847Z,85.50
2022-10-26T18:26:15.917Z,85.73
2022-10-26T18:28:42.858Z,85.53
2022-10-26T18:31:12.011Z,85.73
2022-10-26T18:33:38.750Z,86.24
2022-10-26T18:36:08.314Z,86.09
2022-10-26T18:38:35.204Z,85.98
2022-10-26T18:41:01.845Z,85.60
2022-10-26T18:43:29.030Z,85.67
2022-10-26T18:46:10.535Z,86.10
2022-10-26T18:48:37.171Z,85.92
2022-10-26T18:51:05.067Z,86.28
2022-10-26T18:53:35.673Z,86.25
2022-10-26T18:56:07.497Z,86.29
2022-10-26T18:58:36.385Z,86.13
2022-10-26T19:01:11.102Z,86.01
2022-10-26T19:03:38.786Z,86.41
2022-10-26T19:06:12.727Z,86.09
2022-10-26T19:08:39.806Z,86.51
2022-10-26T19:11:09.424Z,86.70
2022-10-26T19:13:36.282Z,86.71
2022-10-26T19:16:16.907Z,86.86
2022-10-26T19:18:55.861Z,86.97
2022-10-26T19:21:23.523Z,87.03
2022-10-26T19:23:52.314Z,87.11
2022-10-26T19:26:22.034Z,87.08
2022-10-26T19:28:55.201Z,86.83
2022-10-26T19:31:26.224Z,86.73
2022-10-26T19:33:56.359Z,86.93
2022-10-26T19:36:22.930Z,86.46
2022-10-26T19:38:49.624Z,86.58
2022-10-26T19:41:17.237Z,86.69
2022-10-26T19:43:45.244Z,86.93
2022-10-26T19:46:14.225Z,86.70
2022-10-26T19:48:41.540Z,86.48
2022-10-26T19:51:08.917Z,86.54
2022-10-26T19:53:35.768Z,86.73
2022-10-26T19:56:03.252Z,86.67
2022-10-26T19:58:31.238Z,86.74
2022-10-26T20:01:00.031Z,86.83
2022-10-26T20:03:28.955Z,86.65
2022-10-26T20:05:58.893Z,87.00
2022-10-26T20:08:25.694Z,86.81
2022-10-26T20:10:57.115Z,87.17
2022-10-26T20:13:24.244Z,87.16
2022-10-26T20:15:51.809Z,87.08
2022-10-26T20:18:19.670Z,87.23
2022-10-26T20:20:46.885Z,87.50
2022-10-26T20:23:14.108Z,87.40
2022-10-26T20:25:49.052Z,87.53
2022-10-26T20:28:16.671Z,87.85
2022-10-26T20:30:44.475Z,88.09
2022-10-26T20:33:11.817Z,88.18
2022-10-26T20:35:38.960Z,87.97
2022-10-26T20:38:07.171Z,88.17
2022-10-26T20:40:34.658Z,88.19
2022-10-26T20:43:01.499Z,88.00
2022-10-26T20:45:30.724Z,88.11
2022-10-26T20:47:58.643Z,88.14
2022-10-26T20:50:27.729Z,88.09
2022-10-26T20:53:01.926Z,88.04
2022-10-26T20:55:40.200Z,88.09
2022-10-26T20:58:17.433Z,87.85
2022-10-26T21:00:51.758Z,87.84
2022-10-26T21:03:18.357Z,87.37
2022-10-26T21:05:46.893Z,87.44
2022-10-26T21:08:13.944Z,87.57
2022-10-26T21:10:40.555Z,87.42
2022-10-26T21:13:07.334Z,87.24
2022-10-26T21:15:37.161Z,87.00
2022-10-26T21:18:04.131Z,86.97
2022-10-26T21:20:31.168Z,86.73
2022-10-26T21:22:57.828Z,86.98
2022-10-26T21:25:24.455Z,86.90
2022-10-26T21:27:57.550Z,87.21
2022-10-26T21:30:25.184Z,86.72
2022-10-26T21:32:54.726Z,86.65
2022-10-26T21:35:21.887Z,86.78
2022-10-26T21:37:48.803Z,86.72
2022-10-26T21:40:15.765Z,86.82
2022-10-26T21:42:42.433Z,86.74
2022-10-26T21:45:09.361Z,86.62
2022-10-26T21:47:35.841Z,86.39
2022-10-26T21:50:02.407Z,86.67
2022-10-26T21:52:29.019Z,86.60
2022-10-26T21:54:55.565Z,86.86
2022-10-26T21:57:22.125Z,86.63
2022-10-26T21:59:48.676Z,86.31
2022-10-26T22:02:15.418Z,86.40
2022-10-26T22:04:41.965Z,86.44
2022-10-26T22:07:08.593Z,86.57
2022-10-26T22:09:40.686Z,86.64
2022-10-26T22:12:16.230Z,86.48
2022-10-26T22:14:42.873Z,86.54
2022-10-26T22:17:09.542Z,86.45
2022-10-26T22:19:36.095Z,86.63
2022-10-26T22:22:02.661Z,86.32
2022-10-26T22:24:29.188Z,86.13
2022-10-26T22:26:55.867Z,86.51
2022-10-26T22:29:22.428Z,86.43
2022-10-26T22:31:50.625Z,86.19
2022-10-26T22:34:17.285Z,86.28
2022-10-26T22:36:44.120Z,86.32
2022-10-26T22:39:10.847Z,86.24
2022-10-26T22:41:37.439Z,86.28
2022-10-26T22:44:04.058Z,86.28
2022-10-26T22:46:30.812Z,86.27
2022-10-26T22:48:59.832Z,86.11
2022-10-26T22:51:29.665Z,86.05
2022-10-26T22:53:57.882Z,85.63
2022-10-26T22:58:57.143Z,85.71
2022-10-26T23:01:26.571Z,85.80
2022-10-26T23:03:56.072Z,85.98
2022-10-26T23:06:24.641Z,86.01
2022-10-26T23:08:51.615Z,85.90
2022-10-26T23:11:19.689Z,85.57
2022-10-26T23:13:46.541Z,85.87
2022-10-26T23:16:15.699Z,85.98
2022-10-26T23:18:42.327Z,85.56
2022-10-26T23:21:10.498Z,85.60
2022-10-26T23:23:37.716Z,85.83
2022-10-26T23:26:07.330Z,85.89
2022-10-26T23:28:34.898Z,85.69
2022-10-26T23:31:01.933Z,85.72
2022-10-26T23:33:28.486Z,85.72
2022-10-26T23:35:55.234Z,85.72
2022-10-26T23:38:21.757Z,85.40
2022-10-26T23:40:56.097Z,86.03
2022-10-26T23:43:22.738Z,86.16
2022-10-26T23:45:49.363Z,86.00
2022-10-26T23:48:16.815Z,85.92
2022-10-26T23:50:44.584Z,85.78
2022-10-26T23:53:12.472Z,86.04
2022-10-26T23:55:39.677Z,85.79
2022-10-26T23:58:06.606Z,85.83
